Terminal Aerodrome Forecast
Issued by NWS

Home | Current Version | Previous Version | Text Only | Print | Product List | Glossary On
Versions: 1 2 3 4 5 6 7 8 9 10 11 12 13 14
000
FTUS42 TJSJ 171700 RRA
TAFJSJ
TAF
TJSJ 171739Z 1718/1818 06015G22KT P6SM VCSH SCT025 BKN040
      TEMPO 1718/1722 07018G26KT 3SM SHRA BKN025
     FM172300 08012KT P6SM FEW025 SCT040 BKN070
     FM180300 09010KT P6SM VCSH SCT022 SCT040
      TEMPO 1806/1810 VRB15G22KT 4SM SHRA BKN025
     FM181430 08015KT P6SM FEW025 SCT040 SCT070=

USA.gov is the U.S. government's official web portal to all federal, state and local government web resources and services.